Time;durP1;ratioP1;P1;durP2;ratioP2;P2;SDS_P1;SDS_P2;PMS_P1;PMS_P2;Temp;Humidity;BMP_temperature;BMP_pressure;BME280_temperature;BME280_humidity;BME280_pressure;Samples;Min_cycle;Max_cycle;Signal;HPM_P1;HPM_P2
2022/10/10 00:00:34;;;;;;;3.80;3.40;;;;;;;8.84;100.00;100356.31;5072121;28;20201;-72
2022/10/10 00:02:59;;;;;;;3.90;3.60;;;;;;;8.83;100.00;100360.63;5076924;28;20418;-72
2022/10/10 00:05:28;;;;;;;4.40;4.00;;;;;;;8.81;100.00;100359.78;5077378;28;20189;-73
2022/10/10 00:07:53;;;;;;;4.97;3.60;;;;;;;8.83;100.00;100360.63;5079745;28;20185;-73
2022/10/10 00:10:18;;;;;;;4.07;3.77;;;;;;;8.84;100.00;100362.34;5076152;28;20204;-73
2022/10/10 00:12:44;;;;;;;4.57;4.17;;;;;;;8.83;100.00;100357.19;5072327;28;20681;-73
2022/10/10 00:15:11;;;;;;;4.20;3.80;;;;;;;8.81;100.00;100357.19;5077044;28;21084;-75
2022/10/10 00:17:37;;;;;;;3.90;3.60;;;;;;;8.79;100.00;100360.59;5074773;28;20177;-72
2022/10/10 00:20:03;;;;;;;3.90;3.60;;;;;;;8.76;100.00;100352.91;5074040;28;20258;-72
2022/10/10 00:22:29;;;;;;;4.23;3.83;;;;;;;8.74;100.00;100362.34;5078906;28;20246;-71
2022/10/10 00:24:54;;;;;;;4.47;4.07;;;;;;;8.72;100.00;100351.16;5075221;28;20213;-73
2022/10/10 00:27:19;;;;;;;4.20;3.80;;;;;;;8.71;100.00;100352.88;5080401;28;20208;-74
2022/10/10 00:29:45;;;;;;;3.80;3.50;;;;;;;8.70;100.00;100353.72;5079363;28;20212;-72
2022/10/10 00:32:10;;;;;;;3.57;3.20;;;;;;;8.71;100.00;100352.03;5084610;28;20181;-71
2022/10/10 00:34:35;;;;;;;4.27;3.87;;;;;;;8.74;100.00;100354.63;5080060;28;20740;-72
2022/10/10 00:37:00;;;;;;;4.23;3.60;;;;;;;8.78;100.00;100353.72;5087904;28;20217;-71
2022/10/10 00:39:26;;;;;;;3.97;3.67;;;;;;;8.81;100.00;100348.56;5091868;28;20216;-73
2022/10/10 00:41:54;;;;;;;4.23;3.90;;;;;;;8.85;100.00;100351.16;5091945;28;20246;-75
2022/10/10 00:44:19;;;;;;;4.10;3.70;;;;;;;8.92;100.00;100352.03;5088246;28;20216;-72
2022/10/10 00:46:45;;;;;;;3.87;3.57;;;;;;;8.98;100.00;100341.66;5086708;28;20186;-72
2022/10/10 00:49:18;;;;;;;4.10;3.77;;;;;;;9.03;100.00;100344.25;5097938;28;20197;-73
2022/10/10 00:51:46;;;;;;;4.50;4.10;;;;;;;9.06;100.00;100333.06;5084297;28;20185;-72
2022/10/10 00:54:15;;;;;;;3.77;3.47;;;;;;;9.07;100.00;100339.97;5092101;28;20198;-74
2022/10/10 00:56:46;;;;;;;4.40;3.90;;;;;;;9.10;100.00;100345.97;5086643;28;20242;-72
2022/10/10 00:59:13;;;;;;;4.17;3.40;;;;;;;9.12;100.00;100333.03;5090830;28;20213;-72
2022/10/10 01:01:39;;;;;;;3.77;3.50;;;;;;;9.15;100.00;100338.19;5086416;28;20237;-74
2022/10/10 01:04:05;;;;;;;4.20;3.90;;;;;;;9.19;100.00;100334.75;5086286;28;20197;-74
2022/10/10 01:06:32;;;;;;;3.80;3.50;;;;;;;9.23;100.00;100331.28;5090060;28;20244;-74
2022/10/10 01:08:58;;;;;;;3.73;3.43;;;;;;;9.26;100.00;100326.13;5091769;28;20206;-72
2022/10/10 01:11:38;;;;;;;4.80;4.00;;;;;;;9.31;100.00;100339.00;5081952;28;20277;-74
2022/10/10 01:14:22;;;;;;;3.97;3.67;;;;;;;9.34;100.00;100327.84;5088068;28;20189;-72
2022/10/10 01:17:05;;;;;;;4.43;3.93;;;;;;;9.37;100.00;100327.81;5090441;28;20182;-73
2022/10/10 01:19:51;;;;;;;4.37;3.90;;;;;;;9.38;100.00;100326.94;5085975;28;20213;-75
2022/10/10 01:22:51;;;;;;;4.07;3.50;;;;;;;9.37;100.00;100330.41;5087874;28;20563;-74
2022/10/10 01:25:27;;;;;;;4.00;3.70;;;;;;;9.39;100.00;100326.06;5089761;28;20220;-74
2022/10/10 01:28:18;;;;;;;3.97;3.50;;;;;;;9.37;100.00;100323.50;5101882;28;20236;-73
2022/10/10 01:30:47;;;;;;;4.17;3.77;;;;;;;9.37;100.00;100322.66;5084469;28;20182;-71
2022/10/10 01:33:16;;;;;;;3.87;3.57;;;;;;;9.35;100.00;100320.06;5084681;28;20184;-74
2022/10/10 01:35:54;;;;;;;3.70;3.40;;;;;;;9.32;100.00;100330.41;5089320;28;20226;-75
2022/10/10 01:38:49;;;;;;;4.30;3.97;;;;;;;9.27;100.00;100322.66;5079904;28;20185;-72
2022/10/10 01:41:21;;;;;;;4.07;3.67;;;;;;;9.20;100.00;100333.91;5083636;28;20200;-71
2022/10/10 01:43:52;;;;;;;3.90;3.60;;;;;;;9.18;100.00;100333.03;5082819;28;20197;-75
2022/10/10 01:46:18;;;;;;;3.50;3.20;;;;;;;9.14;100.00;100329.63;5078356;28;20201;-74
2022/10/10 01:48:46;;;;;;;3.83;3.53;;;;;;;9.11;100.00;100327.03;5076865;28;20512;-71
2022/10/10 01:51:27;;;;;;;3.63;3.33;;;;;;;9.09;100.00;100328.75;5074227;28;20206;-73
2022/10/10 01:54:13;;;;;;;3.80;3.50;;;;;;;9.08;100.00;100321.00;5074349;28;20654;-73
2022/10/10 01:56:57;;;;;;;4.00;3.60;;;;;;;9.06;100.00;100323.59;5074239;28;20186;-72
2022/10/10 01:59:44;;;;;;;3.90;3.60;;;;;;;9.05;100.00;100319.28;5071102;28;20197;-72
2022/10/10 02:02:35;;;;;;;4.30;3.43;;;;;;;9.02;100.00;100313.28;5069059;28;20217;-75
2022/10/10 02:05:22;;;;;;;4.30;3.90;;;;;;;8.99;100.00;100314.16;5069367;28;20197;-72
2022/10/10 02:07:51;;;;;;;4.03;3.73;;;;;;;8.96;100.00;100302.09;5075371;28;21034;-72
2022/10/10 02:10:22;;;;;;;4.10;3.80;;;;;;;8.92;100.00;100305.56;5077665;28;20208;-73
2022/10/10 02:12:49;;;;;;;4.33;3.93;;;;;;;8.90;100.00;100304.72;5070228;28;20533;-74
2022/10/10 02:15:18;;;;;;;5.33;3.73;;;;;;;8.89;100.00;100313.31;5074124;28;20527;-72
2022/10/10 02:17:46;;;;;;;7.27;3.50;;;;;;;8.85;100.00;100309.84;5079787;28;20272;-74
2022/10/10 02:20:15;;;;;;;4.03;3.63;;;;;;;8.82;100.00;100304.72;5077709;28;20209;-73
2022/10/10 02:22:43;;;;;;;4.40;4.00;;;;;;;8.79;100.00;100307.28;5083632;28;20185;-72
2022/10/10 02:25:09;;;;;;;4.23;3.77;;;;;;;8.77;100.00;100305.59;5083589;28;20185;-74
2022/10/10 02:27:47;;;;;;;4.17;3.77;;;;;;;8.73;100.00;100304.72;5093104;28;20549;-71
2022/10/10 02:30:13;;;;;;;3.50;3.20;;;;;;;8.68;100.00;100306.47;5078669;28;20835;-73
2022/10/10 02:32:44;;;;;;;3.67;3.37;;;;;;;8.65;100.00;100299.56;5071004;28;20190;-73
2022/10/10 02:35:15;;;;;;;4.37;4.00;;;;;;;8.60;100.00;100303.00;5075556;28;20192;-71
2022/10/10 02:37:43;;;;;;;3.50;3.27;;;;;;;8.56;100.00;100306.44;5075895;28;20261;-72
2022/10/10 02:40:11;;;;;;;4.30;4.00;;;;;;;8.53;100.00;100309.88;5078353;28;20927;-73
2022/10/10 02:42:38;;;;;;;4.07;3.67;;;;;;;8.48;100.00;100307.31;5075251;28;20752;-73
2022/10/10 02:45:05;;;;;;;4.30;3.90;;;;;;;8.47;100.00;100309.88;5074529;28;20182;-72
2022/10/10 02:47:30;;;;;;;4.30;3.93;;;;;;;8.42;100.00;100296.97;5075530;28;20194;-75
2022/10/10 02:49:55;;;;;;;4.23;3.83;;;;;;;8.38;100.00;100301.25;5080690;28;20575;-71
2022/10/10 02:52:21;;;;;;;4.10;3.70;;;;;;;8.34;100.00;100296.94;5079687;28;20191;-73
2022/10/10 02:54:46;;;;;;;4.70;3.70;;;;;;;8.34;100.00;100296.09;5077703;28;20208;-73
2022/10/10 02:57:11;;;;;;;4.97;4.33;;;;;;;8.31;100.00;100301.25;5078074;28;20184;-72
2022/10/10 02:59:37;;;;;;;4.10;3.80;;;;;;;8.30;100.00;100300.41;5075645;28;20213;-73
2022/10/10 03:02:03;;;;;;;4.00;3.67;;;;;;;8.29;100.00;100302.97;5080334;28;20258;-72
2022/10/10 03:04:28;;;;;;;4.30;3.90;;;;;;;8.27;100.00;100296.94;5081717;28;20720;-72
2022/10/10 03:06:54;;;;;;;4.53;4.13;;;;;;;8.25;100.00;100307.28;5073088;28;20203;-74
2022/10/10 03:09:19;;;;;;;4.20;3.90;;;;;;;8.22;100.00;100302.97;5072620;28;20232;-72
2022/10/10 03:11:45;;;;;;;3.40;3.20;;;;;;;8.21;100.00;100306.41;5075200;28;20196;-73
2022/10/10 03:14:10;;;;;;;3.87;3.50;;;;;;;8.21;100.00;100302.97;5074682;28;20180;-72
2022/10/10 03:16:36;;;;;;;3.93;3.63;;;;;;;8.20;100.00;100304.69;5076627;28;20203;-72
2022/10/10 03:19:02;;;;;;;4.83;4.37;;;;;;;8.19;100.00;100308.13;5082929;28;20211;-74
2022/10/10 03:21:28;;;;;;;4.10;3.80;;;;;;;8.19;100.00;100305.56;5075748;28;20216;-72
2022/10/10 03:23:53;;;;;;;4.67;4.10;;;;;;;8.20;100.00;100322.75;5077794;28;20960;-73
2022/10/10 03:26:18;;;;;;;4.60;4.20;;;;;;;8.18;100.00;100313.25;5085291;28;20193;-71
2022/10/10 03:28:44;;;;;;;4.23;3.83;;;;;;;8.16;100.00;100321.00;5078009;28;20209;-71
2022/10/10 03:31:09;;;;;;;4.50;4.20;;;;;;;8.16;100.00;100322.75;5074906;28;20656;-71
2022/10/10 03:33:34;;;;;;;4.90;4.40;;;;;;;8.13;100.00;100325.31;5078627;28;20197;-70
2022/10/10 03:36:00;;;;;;;4.50;4.10;;;;;;;8.11;100.00;100322.72;5069837;28;20206;-71
2022/10/10 03:38:25;;;;;;;4.33;4.00;;;;;;;8.09;100.00;100332.19;5067644;28;20368;-73
2022/10/10 03:40:50;;;;;;;4.73;4.30;;;;;;;8.10;100.00;100328.72;5072567;28;20209;-73
2022/10/10 03:43:16;;;;;;;5.37;4.63;;;;;;;8.09;100.00;100327.88;5074872;28;20197;-73
2022/10/10 03:45:43;;;;;;;4.73;4.33;;;;;;;8.09;100.00;100322.72;5071821;28;20204;-73
2022/10/10 03:48:09;;;;;;;5.00;4.50;;;;;;;8.08;100.00;100308.09;5073839;28;20226;-73
2022/10/10 03:50:35;;;;;;;4.87;4.37;;;;;;;8.14;100.00;100319.28;5076299;28;20212;-71
2022/10/10 03:53:00;;;;;;;4.60;4.20;;;;;;;8.16;100.00;100325.31;5073065;28;20215;-71
2022/10/10 03:55:26;;;;;;;4.80;4.40;;;;;;;8.18;100.00;100311.56;5074800;28;20630;-73
2022/10/10 03:57:51;;;;;;;4.97;4.50;;;;;;;8.19;100.00;100321.03;5074185;28;20243;-73
2022/10/10 04:00:16;;;;;;;5.03;4.53;;;;;;;8.17;100.00;100324.44;5077692;28;20763;-72
2022/10/10 04:02:42;;;;;;;4.40;4.00;;;;;;;8.13;100.00;100323.56;5073782;28;20645;-72
2022/10/10 04:05:08;;;;;;;4.63;4.13;;;;;;;8.09;100.00;100317.56;5073787;28;20182;-72
2022/10/10 04:07:33;;;;;;;4.77;4.37;;;;;;;8.06;100.00;100319.28;5073211;28;20200;-71
2022/10/10 04:09:59;;;;;;;4.67;4.30;;;;;;;8.03;100.00;100311.53;5074139;28;20212;-71
2022/10/10 04:12:24;;;;;;;4.63;4.23;;;;;;;7.99;100.00;100315.84;5075784;28;20528;-71
2022/10/10 04:14:49;;;;;;;4.70;4.10;;;;;;;7.97;100.00;100321.81;5081173;28;20267;-74
2022/10/10 04:17:15;;;;;;;4.60;4.30;;;;;;;7.94;100.00;100320.94;5074534;28;20597;-72
2022/10/10 04:19:40;;;;;;;5.33;4.83;;;;;;;7.93;100.00;100321.84;5076523;28;20206;-72
2022/10/10 04:22:05;;;;;;;5.37;4.87;;;;;;;7.93;100.00;100318.38;5074033;28;20690;-71
2022/10/10 04:24:31;;;;;;;4.67;4.27;;;;;;;7.93;100.00;100320.97;5073456;28;20189;-74
2022/10/10 04:26:56;;;;;;;4.87;4.37;;;;;;;7.93;100.00;100315.81;5077690;28;20748;-73
2022/10/10 04:29:21;;;;;;;5.00;4.50;;;;;;;7.99;100.00;100312.38;5075855;28;20213;-72
2022/10/10 04:31:47;;;;;;;4.87;4.47;;;;;;;8.06;100.00;100307.25;5079388;28;20233;-72
2022/10/10 04:34:13;;;;;;;4.67;4.27;;;;;;;8.16;100.00;100308.13;5076049;28;20193;-72
2022/10/10 04:36:38;;;;;;;4.97;4.57;;;;;;;8.29;100.00;100306.44;5079270;28;20198;-73
2022/10/10 04:39:03;;;;;;;6.40;4.30;;;;;;;8.41;100.00;100305.53;5077724;28;20212;-72
2022/10/10 04:41:28;;;;;;;4.70;4.30;;;;;;;8.51;100.00;100311.59;5073058;28;20255;-71
2022/10/10 04:43:54;;;;;;;4.90;4.43;;;;;;;8.63;100.00;100310.75;5074051;28;20236;-72
2022/10/10 04:46:19;;;;;;;4.70;4.20;;;;;;;8.73;100.00;100309.88;5070711;28;20856;-73
2022/10/10 04:48:44;;;;;;;4.90;4.50;;;;;;;8.83;100.00;100310.72;5075617;28;20206;-72
2022/10/10 04:51:10;;;;;;;5.50;5.00;;;;;;;8.92;100.00;100310.72;5077676;28;20636;-74
2022/10/10 04:53:38;;;;;;;4.77;4.20;;;;;;;8.98;100.00;100304.69;5072644;28;20184;-71
2022/10/10 04:56:04;;;;;;;4.70;4.20;;;;;;;9.03;100.00;100307.25;5080131;28;20194;-73
2022/10/10 04:58:29;;;;;;;4.63;4.23;;;;;;;9.05;100.00;100315.88;5074773;28;20726;-71
2022/10/10 05:00:55;;;;;;;4.33;3.93;;;;;;;9.06;100.00;100315.00;5081869;28;20244;-72
2022/10/10 05:03:22;;;;;;;4.73;4.03;;;;;;;9.08;100.00;100324.44;5071517;28;20193;-72
2022/10/10 05:05:48;;;;;;;4.17;3.87;;;;;;;9.12;100.00;100312.38;5073067;28;20193;-73
2022/10/10 05:08:15;;;;;;;4.50;4.10;;;;;;;9.18;100.00;100327.00;5071428;28;20247;-71
2022/10/10 05:10:40;;;;;;;5.20;4.70;;;;;;;9.23;100.00;100320.94;5075050;28;20182;-72
2022/10/10 05:13:09;;;;;;;6.57;5.97;;;;;;;9.28;100.00;100314.06;5079901;28;20177;-75
2022/10/10 05:15:35;;;;;;;8.07;6.30;;;;;;;9.35;100.00;100324.38;5077425;28;20182;-72
2022/10/10 05:18:00;;;;;;;7.90;6.00;;;;;;;9.41;100.00;100320.06;5078157;28;20192;-72
2022/10/10 05:20:26;;;;;;;7.97;6.47;;;;;;;9.46;100.00;100307.13;5075025;28;20696;-72
2022/10/10 05:22:52;;;;;;;7.37;6.03;;;;;;;9.50;100.00;100314.00;5076450;28;20669;-71
2022/10/10 05:25:17;;;;;;;6.73;6.10;;;;;;;9.52;100.00;100330.34;5077463;28;20220;-71
2022/10/10 05:27:43;;;;;;;6.53;5.87;;;;;;;9.55;100.00;100338.06;5071251;28;20223;-72
2022/10/10 05:30:09;;;;;;;6.93;5.60;;;;;;;9.60;100.00;100326.00;5072366;28;20200;-72
2022/10/10 05:32:34;;;;;;;6.53;5.70;;;;;;;9.66;100.00;100314.78;5078572;28;20622;-73
2022/10/10 05:35:00;;;;;;;7.17;6.47;;;;;;;9.71;100.00;100325.97;5077228;28;20185;-72
2022/10/10 05:37:25;;;;;;;7.50;6.80;;;;;;;9.75;100.00;100330.25;5076594;28;20193;-71
2022/10/10 05:39:50;;;;;;;8.17;7.47;;;;;;;9.80;100.00;100325.06;5076216;28;20210;-72
2022/10/10 05:42:16;;;;;;;8.00;7.30;;;;;;;9.84;100.00;100324.16;5078281;28;20229;-71
2022/10/10 05:44:41;;;;;;;9.20;8.30;;;;;;;9.89;100.00;100324.16;5078291;28;20192;-73
2022/10/10 05:47:06;;;;;;;7.93;6.80;;;;;;;9.93;100.00;100327.56;5071941;28;20185;-73
2022/10/10 05:49:32;;;;;;;7.93;5.80;;;;;;;9.93;100.00;100328.41;5078504;28;20217;-71
2022/10/10 05:51:57;;;;;;;6.33;5.53;;;;;;;9.94;100.00;100331.88;5077647;28;20332;-71
2022/10/10 05:54:22;;;;;;;7.67;6.10;;;;;;;9.97;100.00;100340.47;5070516;28;20246;-72
2022/10/10 05:56:47;;;;;;;5.70;4.67;;;;;;;10.00;100.00;100337.88;5071187;28;20189;-71
2022/10/10 05:59:13;;;;;;;5.07;4.57;;;;;;;10.04;100.00;100341.28;5078920;28;20231;-72
2022/10/10 06:01:38;;;;;;;7.03;4.63;;;;;;;10.08;100.00;100332.66;5083897;28;20701;-70
2022/10/10 06:04:04;;;;;;;6.83;5.03;;;;;;;10.14;100.00;100331.75;5079733;28;20186;-74
2022/10/10 06:06:30;;;;;;;5.87;5.37;;;;;;;10.17;100.00;100326.56;5066825;28;20191;-71
2022/10/10 06:08:55;;;;;;;7.27;5.17;;;;;;;10.21;100.00;100333.41;5067807;28;20266;-72
2022/10/10 06:11:22;;;;;;;5.20;4.80;;;;;;;10.25;100.00;100334.28;5078934;28;20172;-71
2022/10/10 06:13:52;;;;;;;5.30;4.90;;;;;;;10.29;100.00;100335.94;5085778;28;20182;-73
2022/10/10 06:16:18;;;;;;;6.90;4.73;;;;;;;10.34;100.00;100329.91;5073160;28;20194;-72
2022/10/10 06:18:43;;;;;;;6.63;5.23;;;;;;;10.40;100.00;100328.16;5077939;28;20209;-71
2022/10/10 06:21:10;;;;;;;7.50;5.20;;;;;;;10.45;100.00;100319.47;5081557;28;20205;-72
2022/10/10 06:23:36;;;;;;;7.87;4.37;;;;;;;10.48;100.00;100340.16;5081194;28;20204;-74
2022/10/10 06:26:01;;;;;;;5.83;4.13;;;;;;;10.56;100.00;100334.06;5079466;28;20552;-72
2022/10/10 06:28:26;;;;;;;8.30;4.30;;;;;;;10.64;100.00;100337.44;5078966;28;20189;-71
2022/10/10 06:30:52;;;;;;;4.97;4.47;;;;;;;10.74;100.00;100340.81;5083228;28;20323;-71
2022/10/10 06:33:20;;;;;;;5.10;4.57;;;;;;;10.84;100.00;100342.44;5075201;28;20622;-71
2022/10/10 06:35:47;;;;;;;6.20;5.70;;;;;;;10.91;100.00;100349.28;5083897;28;20181;-72
2022/10/10 06:38:14;;;;;;;8.43;7.63;;;;;;;10.97;100.00;100344.03;5080051;28;20213;-71
2022/10/10 06:40:40;;;;;;;10.87;9.97;;;;;;;10.98;100.00;100347.50;5068074;28;20213;-71
2022/10/10 06:43:10;;;;;;;9.90;8.47;;;;;;;10.94;100.00;100345.81;5072690;28;20677;-73
2022/10/10 06:45:40;;;;;;;8.73;7.67;;;;;;;10.87;100.00;100347.59;5072491;28;20405;-71
2022/10/10 06:48:06;;;;;;;6.97;6.23;;;;;;;10.80;100.00;100358.91;5073723;28;20189;-71
2022/10/10 06:50:31;;;;;;;5.90;5.23;;;;;;;10.77;100.00;100366.69;5080860;28;20197;-72
2022/10/10 06:52:56;;;;;;;6.40;5.80;;;;;;;10.73;100.00;100370.16;5073788;28;20269;-71
2022/10/10 06:55:22;;;;;;;5.60;5.10;;;;;;;10.69;100.00;100371.91;5078829;28;20215;-71
2022/10/10 06:57:47;;;;;;;4.60;4.20;;;;;;;10.65;100.00;100370.22;5078860;28;20677;-71
2022/10/10 07:00:13;;;;;;;5.00;4.60;;;;;;;10.61;100.00;100371.97;5076535;28;20282;-72
2022/10/10 07:02:39;;;;;;;4.53;4.23;;;;;;;10.61;100.00;100379.75;5071928;28;20186;-74
2022/10/10 07:05:08;;;;;;;5.13;4.63;;;;;;;10.64;100.00;100386.63;5067516;28;20277;-73
2022/10/10 07:07:34;;;;;;;5.13;4.20;;;;;;;10.67;100.00;100386.59;5064808;28;20667;-72
2022/10/10 07:09:59;;;;;;;4.93;4.13;;;;;;;10.73;100.00;100383.09;5079349;28;20687;-71
2022/10/10 07:12:25;;;;;;;4.60;4.20;;;;;;;10.81;100.00;100382.16;5084398;28;20267;-73
2022/10/10 07:14:50;;;;;;;5.30;4.80;;;;;;;10.86;100.00;100387.28;5082789;28;20181;-73
2022/10/10 07:17:15;;;;;;;4.73;4.33;;;;;;;10.95;100.00;100392.41;5081958;28;20733;-72
2022/10/10 07:19:41;;;;;;;4.83;4.40;;;;;;;11.04;100.00;100398.38;5084781;28;20220;-74
2022/10/10 07:22:06;;;;;;;5.63;4.33;;;;;;;11.08;100.00;100400.91;5078285;28;20209;-72
2022/10/10 07:24:31;;;;;;;4.87;4.37;;;;;;;11.11;100.00;100393.13;5081948;28;20327;-72
2022/10/10 07:26:56;;;;;;;4.30;3.97;;;;;;;11.16;100.00;100398.25;5087421;28;20196;-73
2022/10/10 07:29:23;;;;;;;5.27;4.33;;;;;;;11.23;100.00;100401.63;5084650;28;20204;-71
2022/10/10 07:31:48;;;;;;;5.13;4.63;;;;;;;11.31;100.00;100405.03;5080368;28;20181;-71
2022/10/10 07:34:14;;;;;;;8.37;5.37;;;;;;;11.36;100.00;100397.19;5077327;28;20181;-72
2022/10/10 07:36:39;;;;;;;5.70;5.20;;;;;;;11.42;100.00;100397.13;5077639;28;20193;-71
2022/10/10 07:39:04;;;;;;;6.57;4.80;;;;;;;11.50;100.00;100395.31;5088621;28;20634;-71
2022/10/10 07:41:30;;;;;;;5.23;4.73;;;;;;;11.63;100.00;100392.59;5085226;28;20204;-72
2022/10/10 07:43:55;;;;;;;5.30;4.80;;;;;;;11.75;100.00;100400.22;5081244;28;20198;-74
2022/10/10 07:46:20;;;;;;;5.90;5.30;;;;;;;11.83;100.00;100390.63;5081331;28;20187;-71
2022/10/10 07:48:47;;;;;;;5.37;4.87;;;;;;;11.95;100.00;100399.97;5079824;28;20555;-73
2022/10/10 07:51:12;;;;;;;6.33;5.03;;;;;;;12.07;100.00;100387.75;5086590;28;20176;-74
2022/10/10 07:53:39;;;;;;;7.60;5.80;;;;;;;12.23;100.00;100393.56;5080496;28;20836;-73
2022/10/10 07:56:06;;;;;;;7.07;5.17;;;;;;;12.41;100.00;100393.31;5086703;28;20653;-71
2022/10/10 07:58:33;;;;;;;6.50;4.70;;;;;;;12.63;100.00;100393.84;5082443;28;20746;-71
2022/10/10 08:01:03;;;;;;;5.00;4.40;;;;;;;12.83;100.00;100397.00;5082099;28;20366;-71
2022/10/10 08:03:28;;;;;;;6.30;4.70;;;;;;;13.00;100.00;100394.97;5078362;28;20187;-73
2022/10/10 08:05:54;;;;;;;5.63;5.07;;;;;;;13.13;100.00;100394.75;5081756;28;20193;-73
2022/10/10 08:08:19;;;;;;;4.90;4.40;;;;;;;13.25;100.00;100397.13;5084529;28;20311;-71
2022/10/10 08:10:44;;;;;;;4.80;4.30;;;;;;;13.36;100.00;100400.41;5084142;28;20198;-71
2022/10/10 08:13:10;;;;;;;5.03;4.53;;;;;;;13.52;100.00;100403.59;5082866;28;20185;-73
2022/10/10 08:15:38;;;;;;;5.00;4.60;;;;;;;13.66;100.00;100402.47;5084352;28;20191;-71
2022/10/10 08:18:03;;;;;;;4.87;4.47;;;;;;;13.80;100.00;100397.84;5077399;28;20752;-72
2022/10/10 08:20:29;;;;;;;5.00;4.50;;;;;;;13.95;100.00;100407.09;5083150;28;20281;-75
2022/10/10 08:22:54;;;;;;;5.27;4.63;;;;;;;14.08;100.00;100406.81;5084893;28;20225;-72
2022/10/10 08:25:19;;;;;;;6.17;5.17;;;;;;;14.18;100.00;100400.50;5081917;28;20193;-73
2022/10/10 08:27:45;;;;;;;6.17;5.57;;;;;;;14.29;100.00;100397.66;5077268;28;20193;-71
2022/10/10 08:30:11;;;;;;;5.87;5.27;;;;;;;14.38;100.00;100397.44;5078483;28;20309;-71
2022/10/10 08:32:36;;;;;;;6.63;5.83;;;;;;;14.54;100.00;100403.19;5081235;28;20204;-73
2022/10/10 08:35:01;;;;;;;7.17;6.00;;;;;;;14.66;100.00;100399.44;5078383;28;20193;-71
2022/10/10 08:37:28;;;;;;;5.73;5.27;;;;;;;14.74;100.00;100392.31;5077172;28;20212;-72
2022/10/10 08:39:53;;;;;;;5.63;4.90;;;;;;;14.84;100.00;100394.66;5069898;28;20641;-74
2022/10/10 08:42:31;;;;;;;4.97;4.57;;;;;;;14.93;100.00;100395.28;5079655;28;20293;-73
2022/10/10 08:45:01;;;;;;;5.10;4.70;;;;;;;15.01;100.00;100384.69;5081717;28;20353;-71
2022/10/10 08:47:43;;;;;;;5.30;4.80;;;;;;;15.11;100.00;100387.06;5076884;28;20273;-72
2022/10/10 08:50:20;;;;;;;5.17;4.70;;;;;;;15.20;100.00;100390.25;5078830;28;20631;-71
2022/10/10 08:52:59;;;;;;;5.60;5.10;;;;;;;15.32;100.00;100393.44;5075003;28;20189;-73
2022/10/10 08:55:39;;;;;;;5.47;4.97;;;;;;;15.41;100.00;100389.75;5085777;27;20204;-72
2022/10/10 08:58:15;;;;;;;6.20;4.93;;;;;;;15.51;100.00;100399.84;5078993;28;20268;-72
2022/10/10 09:00:46;;;;;;;6.13;5.53;;;;;;;15.62;100.00;100398.72;5082309;28;20355;-72
2022/10/10 09:03:34;;;;;;;5.43;4.93;;;;;;;15.71;100.00;100395.84;5080765;28;20184;-72
2022/10/10 09:06:09;;;;;;;4.80;4.40;;;;;;;15.82;100.00;100392.94;5080999;28;20216;-71
2022/10/10 09:08:55;;;;;;;5.50;5.10;;;;;;;15.92;100.00;100391.78;5074319;28;20213;-73
2022/10/10 09:11:49;;;;;;;5.07;4.60;;;;;;;16.05;100.00;100396.63;5072000;28;20191;-76
2022/10/10 09:14:35;;;;;;;5.83;4.77;;;;;;;16.15;100.00;100387.63;5070937;28;20226;-75
2022/10/10 09:17:39;;;;;;;4.90;4.50;;;;;;;16.28;100.00;100382.88;5085663;28;20250;-74
2022/10/10 09:20:46;;;;;;;5.20;4.70;;;;;;;16.43;100.00;100381.56;5076196;28;20598;-72
2022/10/10 09:23:27;;;;;;;5.33;4.70;;;;;;;16.51;100.00;100376.09;5063903;28;20769;-72
2022/10/10 09:26:22;;;;;;;4.77;4.30;;;;;;;16.65;100.00;100375.63;5073370;28;20211;-71
2022/10/10 09:28:47;;;;;;;5.10;4.53;;;;;;;16.74;100.00;100380.56;5072026;28;20221;-71
2022/10/10 09:31:17;;;;;;;4.60;4.20;;;;;;;16.81;100.00;100379.44;5072782;28;20206;-71
2022/10/10 09:33:56;;;;;;;6.23;4.40;;;;;;;16.89;100.00;100389.63;5083114;28;20205;-73
2022/10/10 09:36:32;;;;;;;4.67;4.27;;;;;;;16.98;100.00;100383.25;5078454;28;20247;-72
2022/10/10 09:39:15;;;;;;;5.57;5.07;;;;;;;17.05;100.00;100372.53;5084333;28;20292;-73
2022/10/10 09:41:43;;;;;;;4.80;4.10;;;;;;;17.11;100.00;100378.47;5075894;28;20205;-71
2022/10/10 09:44:11;;;;;;;5.43;4.33;;;;;;;17.17;100.00;100375.63;5075405;28;20198;-72
2022/10/10 09:46:37;;;;;;;4.90;4.50;;;;;;;17.25;100.00;100373.63;5064665;28;20195;-74
2022/10/10 09:49:03;;;;;;;4.40;4.00;;;;;;;17.29;100.00;100371.75;5082950;28;20209;-71
2022/10/10 09:51:30;;;;;;;4.57;4.03;;;;;;;17.37;100.00;100375.78;5072622;28;20184;-72
2022/10/10 09:53:55;;;;;;;4.67;4.27;;;;;;;17.42;100.00;100367.78;5068703;28;20199;-71
2022/10/10 09:56:24;;;;;;;4.43;4.03;;;;;;;17.50;100.00;100359.66;5064274;28;20197;-72
2022/10/10 09:58:52;;;;;;;4.53;4.13;;;;;;;17.58;100.00;100368.09;5064704;28;20221;-72
2022/10/10 10:01:24;;;;;;;4.53;3.90;;;;;;;17.68;100.00;100363.38;5070927;28;20208;-73
2022/10/10 10:04:18;;;;;;;4.30;3.90;;;;;;;17.77;100.00;100363.00;5069620;28;20188;-73
2022/10/10 10:06:47;;;;;;;4.70;4.00;;;;;;;17.87;100.00;100371.38;5070991;28;20197;-72
2022/10/10 10:09:16;;;;;;;3.90;3.33;;;;;;;17.95;100.00;100363.22;5075681;28;20212;-74
2022/10/10 10:11:43;;;;;;;3.87;3.57;;;;;;;18.04;100.00;100367.28;5065714;28;20193;-72
2022/10/10 10:14:25;;;;;;;4.87;3.77;;;;;;;18.16;100.00;100368.53;5079769;28;20341;-72
2022/10/10 10:16:51;;;;;;;4.17;3.70;;;;;;;18.27;100.00;100361.97;5080057;28;21088;-74
2022/10/10 10:19:29;;;;;;;3.40;3.10;;;;;;;18.37;100.00;100366.88;5084906;28;20211;-74
2022/10/10 10:21:54;;;;;;;3.90;3.60;;;;;;;18.45;100.00;100356.91;5069972;28;20217;-73
2022/10/10 10:24:26;;;;;;;3.83;3.37;;;;;;;18.52;100.00;100365.38;5076534;28;20193;-71
2022/10/10 10:26:52;;;;;;;3.70;3.40;;;;;;;18.61;100.00;100358.91;5071491;28;20193;-70
2022/10/10 10:29:26;;;;;;;3.73;2.70;;;;;;;18.69;100.00;100357.69;5072253;28;20234;-72
2022/10/10 10:32:39;;;;;;;3.43;3.13;;;;;;;18.82;100.00;100359.78;5065417;28;20237;-71
2022/10/10 10:35:13;;;;;;;3.50;3.10;;;;;;;18.94;100.00;100355.78;5065348;28;20291;-71
2022/10/10 10:38:00;;;;;;;4.13;2.80;;;;;;;18.99;100.00;100367.81;5066927;28;20189;-74
2022/10/10 10:40:59;;;;;;;2.90;2.50;;;;;;;19.01;100.00;100359.88;5066281;28;20208;-72
2022/10/10 10:43:42;;;;;;;3.47;2.63;;;;;;;19.06;100.00;100368.41;5062902;28;20206;-72
2022/10/10 10:46:26;;;;;;;2.70;2.50;;;;;;;19.07;100.00;100370.09;5066095;28;20193;-71
2022/10/10 10:49:03;;;;;;;2.40;2.20;;;;;;;19.12;100.00;100369.91;5086260;28;20267;-72
2022/10/10 10:51:56;;;;;;;3.17;2.33;;;;;;;19.17;100.00;100373.19;5087860;28;20191;-73
2022/10/10 10:54:49;;;;;;;2.60;2.40;;;;;;;19.17;100.00;100371.41;5085418;28;20205;-72
2022/10/10 10:57:43;;;;;;;2.50;2.30;;;;;;;19.23;100.00;100365.03;5068544;28;20550;-72
2022/10/10 11:00:16;;;;;;;3.77;2.10;;;;;;;19.29;100.00;100369.16;5080548;28;20224;-72
2022/10/10 11:02:59;;;;;;;3.93;2.50;;;;;;;19.37;100.00;100372.31;5088466;28;20196;-71
2022/10/10 11:05:36;;;;;;;3.07;2.10;;;;;;;19.42;100.00;100370.34;5073953;28;20200;-72
2022/10/10 11:08:08;;;;;;;3.40;2.57;;;;;;;19.43;100.00;100358.94;5084501;28;20670;-72
2022/10/10 11:10:48;;;;;;;4.87;2.27;;;;;;;19.50;100.00;100368.22;5076770;28;20259;-74
2022/10/10 11:13:16;;;;;;;2.63;2.43;;;;;;;19.56;100.00;100363.63;5082792;28;20185;-74
2022/10/10 11:15:52;;;;;;;3.47;2.47;;;;;;;19.59;100.00;100361.69;5086940;28;20185;-72
2022/10/10 11:18:34;;;;;;;3.90;2.50;;;;;;;19.65;100.00;100364.06;5087979;28;20169;-72
2022/10/10 11:21:16;;;;;;;2.60;2.10;;;;;;;19.71;100.00;100364.66;5084245;28;20214;-72
2022/10/10 11:24:05;;;;;;;3.50;2.37;;;;;;;19.75;100.00;100361.81;5081367;28;20657;-72
2022/10/10 11:26:41;;;;;;;3.17;2.40;;;;;;;19.78;100.00;100364.31;5089169;28;20825;-72
2022/10/10 11:29:33;;;;;;;3.47;2.83;;;;;;;19.79;100.00;100358.16;5079805;28;20209;-73
2022/10/10 11:32:05;;;;;;;2.77;2.50;;;;;;;19.83;100.00;100355.38;5080036;28;20193;-72
2022/10/10 11:34:30;;;;;;;4.17;2.50;;;;;;;19.88;100.00;100353.44;5069390;28;20186;-75